sensor_id;sensor_type;location;lat;lon;timestamp;temperature;humidity
6178;DHT22;3122;48.208;11.174;2023-04-07T00:00:20;3.90;1.00
6178;DHT22;3122;48.208;11.174;2023-04-07T00:05:22;3.90;1.00
6178;DHT22;3122;48.208;11.174;2023-04-07T00:10:24;3.90;1.00
6178;DHT22;3122;48.208;11.174;2023-04-07T00:15:26;3.80;1.00
6178;DHT22;3122;48.208;11.174;2023-04-07T00:20:27;3.80;1.00
6178;DHT22;3122;48.208;11.174;2023-04-07T00:25:30;3.80;1.00
6178;DHT22;3122;48.208;11.174;2023-04-07T00:30:31;3.80;1.00
6178;DHT22;3122;48.208;11.174;2023-04-07T00:35:32;4.00;1.00
6178;DHT22;3122;48.208;11.174;2023-04-07T00:40:34;4.30;1.00
6178;DHT22;3122;48.208;11.174;2023-04-07T00:45:35;4.60;1.00
6178;DHT22;3122;48.208;11.174;2023-04-07T00:50:37;4.50;1.00
6178;DHT22;3122;48.208;11.174;2023-04-07T00:55:39;4.50;1.00
6178;DHT22;3122;48.208;11.174;2023-04-07T01:00:54;4.80;1.00
6178;DHT22;3122;48.208;11.174;2023-04-07T01:06:02;4.80;1.00
6178;DHT22;3122;48.208;11.174;2023-04-07T01:16:51;4.90;1.00
6178;DHT22;3122;48.208;11.174;2023-04-07T01:21:53;5.00;1.00
6178;DHT22;3122;48.208;11.174;2023-04-07T01:32:29;4.80;1.00
6178;DHT22;3122;48.208;11.174;2023-04-07T01:37:32;4.80;1.00
6178;DHT22;3122;48.208;11.174;2023-04-07T01:42:33;4.90;1.00
6178;DHT22;3122;48.208;11.174;2023-04-07T01:47:35;4.80;1.00
6178;DHT22;3122;48.208;11.174;2023-04-07T01:52:39;4.90;1.00
6178;DHT22;3122;48.208;11.174;2023-04-07T01:57:40;5.10;1.00
6178;DHT22;3122;48.208;11.174;2023-04-07T02:02:43;5.10;1.00
6178;DHT22;3122;48.208;11.174;2023-04-07T02:07:52;5.10;1.00
6178;DHT22;3122;48.208;11.174;2023-04-07T02:12:55;5.00;1.00
6178;DHT22;3122;48.208;11.174;2023-04-07T02:17:58;4.90;1.00
6178;DHT22;3122;48.208;11.174;2023-04-07T02:23:00;4.90;1.00
6178;DHT22;3122;48.208;11.174;2023-04-07T02:28:00;4.80;1.00
6178;DHT22;3122;48.208;11.174;2023-04-07T02:33:01;4.70;1.00
6178;DHT22;3122;48.208;11.174;2023-04-07T02:38:02;4.50;1.00
6178;DHT22;3122;48.208;11.174;2023-04-07T02:43:03;4.50;1.00
6178;DHT22;3122;48.208;11.174;2023-04-07T02:48:04;4.50;1.00
6178;DHT22;3122;48.208;11.174;2023-04-07T02:53:05;4.40;1.00
6178;DHT22;3122;48.208;11.174;2023-04-07T02:58:06;4.30;1.00
6178;DHT22;3122;48.208;11.174;2023-04-07T03:03:06;4.20;1.00
6178;DHT22;3122;48.208;11.174;2023-04-07T03:08:07;4.30;1.00
6178;DHT22;3122;48.208;11.174;2023-04-07T03:13:08;4.30;1.00
6178;DHT22;3122;48.208;11.174;2023-04-07T03:18:09;4.30;1.00
6178;DHT22;3122;48.208;11.174;2023-04-07T03:23:10;4.20;1.00
6178;DHT22;3122;48.208;11.174;2023-04-07T03:28:12;4.20;1.00
6178;DHT22;3122;48.208;11.174;2023-04-07T03:33:13;4.20;1.00
6178;DHT22;3122;48.208;11.174;2023-04-07T03:38:13;4.20;1.00
6178;DHT22;3122;48.208;11.174;2023-04-07T03:43:14;4.30;1.00
6178;DHT22;3122;48.208;11.174;2023-04-07T03:48:15;4.30;1.00
6178;DHT22;3122;48.208;11.174;2023-04-07T03:53:16;4.20;1.00
6178;DHT22;3122;48.208;11.174;2023-04-07T03:58:18;4.20;1.00
6178;DHT22;3122;48.208;11.174;2023-04-07T04:03:19;4.20;1.00
6178;DHT22;3122;48.208;11.174;2023-04-07T04:08:20;4.20;1.00
6178;DHT22;3122;48.208;11.174;2023-04-07T04:13:21;4.30;1.00
6178;DHT22;3122;48.208;11.174;2023-04-07T04:18:21;4.20;1.00
6178;DHT22;3122;48.208;11.174;2023-04-07T04:23:22;4.20;1.00
6178;DHT22;3122;48.208;11.174;2023-04-07T04:28:23;4.20;1.00
6178;DHT22;3122;48.208;11.174;2023-04-07T04:33:24;4.20;1.00
6178;DHT22;3122;48.208;11.174;2023-04-07T04:38:25;4.20;1.00
6178;DHT22;3122;48.208;11.174;2023-04-07T04:43:25;4.20;1.00
6178;DHT22;3122;48.208;11.174;2023-04-07T04:48:26;4.20;1.00
6178;DHT22;3122;48.208;11.174;2023-04-07T04:53:26;4.20;1.00
6178;DHT22;3122;48.208;11.174;2023-04-07T04:58:27;4.20;1.00
6178;DHT22;3122;48.208;11.174;2023-04-07T05:03:28;4.10;1.00
6178;DHT22;3122;48.208;11.174;2023-04-07T05:08:28;4.20;1.00
6178;DHT22;3122;48.208;11.174;2023-04-07T05:13:29;4.20;1.00
6178;DHT22;3122;48.208;11.174;2023-04-07T05:18:30;4.20;1.00
6178;DHT22;3122;48.208;11.174;2023-04-07T05:23:31;4.10;1.00
6178;DHT22;3122;48.208;11.174;2023-04-07T05:28:31;4.10;1.00
6178;DHT22;3122;48.208;11.174;2023-04-07T05:33:32;4.10;1.00
6178;DHT22;3122;48.208;11.174;2023-04-07T05:38:33;4.10;1.00
6178;DHT22;3122;48.208;11.174;2023-04-07T05:43:34;4.10;1.00
6178;DHT22;3122;48.208;11.174;2023-04-07T05:48:34;4.10;1.00
6178;DHT22;3122;48.208;11.174;2023-04-07T05:53:35;4.20;1.00
6178;DHT22;3122;48.208;11.174;2023-04-07T05:58:36;4.10;1.00
6178;DHT22;3122;48.208;11.174;2023-04-07T06:03:37;4.20;1.00
6178;DHT22;3122;48.208;11.174;2023-04-07T06:08:37;4.20;1.00
6178;DHT22;3122;48.208;11.174;2023-04-07T06:13:38;4.30;1.00
6178;DHT22;3122;48.208;11.174;2023-04-07T06:18:39;4.20;1.00
6178;DHT22;3122;48.208;11.174;2023-04-07T06:23:40;4.30;1.00
6178;DHT22;3122;48.208;11.174;2023-04-07T06:28:41;4.30;1.00
6178;DHT22;3122;48.208;11.174;2023-04-07T06:33:42;4.40;1.00
6178;DHT22;3122;48.208;11.174;2023-04-07T06:38:43;4.40;1.00
6178;DHT22;3122;48.208;11.174;2023-04-07T06:43:46;4.50;1.00
6178;DHT22;3122;48.208;11.174;2023-04-07T06:48:47;4.50;1.00
6178;DHT22;3122;48.208;11.174;2023-04-07T06:53:47;4.60;1.00
6178;DHT22;3122;48.208;11.174;2023-04-07T06:58:48;4.60;1.00
6178;DHT22;3122;48.208;11.174;2023-04-07T07:03:49;4.70;1.00
6178;DHT22;3122;48.208;11.174;2023-04-07T07:08:50;4.70;1.00
6178;DHT22;3122;48.208;11.174;2023-04-07T07:13:50;4.80;1.00
6178;DHT22;3122;48.208;11.174;2023-04-07T07:18:51;4.80;1.00
6178;DHT22;3122;48.208;11.174;2023-04-07T07:23:51;4.80;1.00
6178;DHT22;3122;48.208;11.174;2023-04-07T07:28:52;4.90;1.00
6178;DHT22;3122;48.208;11.174;2023-04-07T07:33:53;5.00;1.00
6178;DHT22;3122;48.208;11.174;2023-04-07T07:38:53;5.10;1.00
6178;DHT22;3122;48.208;11.174;2023-04-07T07:43:54;5.20;1.00
6178;DHT22;3122;48.208;11.174;2023-04-07T07:48:55;5.30;1.00
6178;DHT22;3122;48.208;11.174;2023-04-07T07:53:55;5.60;1.00
6178;DHT22;3122;48.208;11.174;2023-04-07T07:58:56;5.70;1.00
6178;DHT22;3122;48.208;11.174;2023-04-07T08:03:56;5.70;1.00
6178;DHT22;3122;48.208;11.174;2023-04-07T08:08:57;5.80;1.00
6178;DHT22;3122;48.208;11.174;2023-04-07T08:13:58;6.00;1.00
6178;DHT22;3122;48.208;11.174;2023-04-07T08:18:58;6.10;1.00
6178;DHT22;3122;48.208;11.174;2023-04-07T08:23:59;6.20;1.00
6178;DHT22;3122;48.208;11.174;2023-04-07T08:29:00;6.50;1.00
6178;DHT22;3122;48.208;11.174;2023-04-07T08:34:00;6.70;1.00
6178;DHT22;3122;48.208;11.174;2023-04-07T08:39:01;6.90;1.00
6178;DHT22;3122;48.208;11.174;2023-04-07T08:44:06;7.00;1.00
6178;DHT22;3122;48.208;11.174;2023-04-07T08:49:08;7.20;1.00
6178;DHT22;3122;48.208;11.174;2023-04-07T08:54:13;7.20;1.00
6178;DHT22;3122;48.208;11.174;2023-04-07T08:59:15;7.40;1.00
6178;DHT22;3122;48.208;11.174;2023-04-07T09:04:18;7.50;1.00
6178;DHT22;3122;48.208;11.174;2023-04-07T09:09:18;7.60;1.00
6178;DHT22;3122;48.208;11.174;2023-04-07T09:14:20;7.60;1.00
6178;DHT22;3122;48.208;11.174;2023-04-07T09:19:21;7.60;1.00
6178;DHT22;3122;48.208;11.174;2023-04-07T09:24:28;7.80;1.00
6178;DHT22;3122;48.208;11.174;2023-04-07T09:29:30;7.80;1.00
6178;DHT22;3122;48.208;11.174;2023-04-07T09:34:34;7.80;1.00
6178;DHT22;3122;48.208;11.174;2023-04-07T09:39:49;8.00;1.00
6178;DHT22;3122;48.208;11.174;2023-04-07T09:44:50;8.00;1.00
6178;DHT22;3122;48.208;11.174;2023-04-07T09:49:53;8.20;1.00
6178;DHT22;3122;48.208;11.174;2023-04-07T09:54:54;8.30;1.00
6178;DHT22;3122;48.208;11.174;2023-04-07T09:59:55;8.40;1.00
6178;DHT22;3122;48.208;11.174;2023-04-07T10:04:57;8.80;1.00
6178;DHT22;3122;48.208;11.174;2023-04-07T10:09:58;8.80;1.00
6178;DHT22;3122;48.208;11.174;2023-04-07T10:14:59;9.00;1.00
6178;DHT22;3122;48.208;11.174;2023-04-07T10:20:03;9.10;1.00
6178;DHT22;3122;48.208;11.174;2023-04-07T10:25:08;9.10;1.00
6178;DHT22;3122;48.208;11.174;2023-04-07T10:30:13;9.50;1.00
6178;DHT22;3122;48.208;11.174;2023-04-07T10:35:15;9.40;1.00
6178;DHT22;3122;48.208;11.174;2023-04-07T10:56:07;9.90;1.00
6178;DHT22;3122;48.208;11.174;2023-04-07T11:06:21;10.20;1.00
6178;DHT22;3122;48.208;11.174;2023-04-07T11:11:38;10.20;1.00
6178;DHT22;3122;48.208;11.174;2023-04-07T11:16:41;10.20;1.00
6178;DHT22;3122;48.208;11.174;2023-04-07T11:21:42;10.10;1.00
6178;DHT22;3122;48.208;11.174;2023-04-07T11:26:43;10.30;1.00
6178;DHT22;3122;48.208;11.174;2023-04-07T11:31:46;10.60;1.00
6178;DHT22;3122;48.208;11.174;2023-04-07T11:36:47;10.90;1.00
6178;DHT22;3122;48.208;11.174;2023-04-07T11:41:49;11.10;1.00
6178;DHT22;3122;48.208;11.174;2023-04-07T11:46:57;10.90;1.00
6178;DHT22;3122;48.208;11.174;2023-04-07T11:52:05;10.80;1.00
6178;DHT22;3122;48.208;11.174;2023-04-07T11:57:08;10.70;1.00
6178;DHT22;3122;48.208;11.174;2023-04-07T12:02:30;10.10;1.00
6178;DHT22;3122;48.208;11.174;2023-04-07T12:07:31;10.10;1.00
6178;DHT22;3122;48.208;11.174;2023-04-07T12:12:32;10.10;1.00
6178;DHT22;3122;48.208;11.174;2023-04-07T12:17:33;10.10;1.00
6178;DHT22;3122;48.208;11.174;2023-04-07T12:22:33;10.20;1.00
6178;DHT22;3122;48.208;11.174;2023-04-07T12:27:34;10.30;1.00
6178;DHT22;3122;48.208;11.174;2023-04-07T12:32:34;10.40;1.00
6178;DHT22;3122;48.208;11.174;2023-04-07T12:37:35;10.50;1.00
6178;DHT22;3122;48.208;11.174;2023-04-07T12:42:36;10.60;1.00
6178;DHT22;3122;48.208;11.174;2023-04-07T12:47:37;10.50;1.00
6178;DHT22;3122;48.208;11.174;2023-04-07T12:52:37;10.40;1.00
6178;DHT22;3122;48.208;11.174;2023-04-07T12:57:38;10.20;1.00
6178;DHT22;3122;48.208;11.174;2023-04-07T13:02:39;10.30;1.00
6178;DHT22;3122;48.208;11.174;2023-04-07T13:07:41;10.30;1.00
6178;DHT22;3122;48.208;11.174;2023-04-07T13:12:41;10.70;1.00
6178;DHT22;3122;48.208;11.174;2023-04-07T13:17:42;10.80;1.00
6178;DHT22;3122;48.208;11.174;2023-04-07T13:22:43;10.60;1.00
6178;DHT22;3122;48.208;11.174;2023-04-07T13:27:43;10.60;1.00
6178;DHT22;3122;48.208;11.174;2023-04-07T13:32:44;10.50;1.00
6178;DHT22;3122;48.208;11.174;2023-04-07T13:37:44;10.40;1.00
6178;DHT22;3122;48.208;11.174;2023-04-07T13:42:45;10.40;1.00
6178;DHT22;3122;48.208;11.174;2023-04-07T13:47:46;10.50;1.00
6178;DHT22;3122;48.208;11.174;2023-04-07T13:52:46;10.40;1.00
6178;DHT22;3122;48.208;11.174;2023-04-07T13:57:47;10.40;1.00
6178;DHT22;3122;48.208;11.174;2023-04-07T14:02:48;10.40;1.00
6178;DHT22;3122;48.208;11.174;2023-04-07T14:07:48;10.50;1.00
6178;DHT22;3122;48.208;11.174;2023-04-07T14:12:50;10.40;1.00
6178;DHT22;3122;48.208;11.174;2023-04-07T14:17:50;10.50;1.00
6178;DHT22;3122;48.208;11.174;2023-04-07T14:22:51;10.50;1.00
6178;DHT22;3122;48.208;11.174;2023-04-07T14:27:52;10.60;1.00
6178;DHT22;3122;48.208;11.174;2023-04-07T14:32:52;10.40;1.00
6178;DHT22;3122;48.208;11.174;2023-04-07T14:37:53;10.40;1.00
6178;DHT22;3122;48.208;11.174;2023-04-07T14:42:54;10.50;1.00
6178;DHT22;3122;48.208;11.174;2023-04-07T14:47:57;10.50;1.00
6178;DHT22;3122;48.208;11.174;2023-04-07T14:52:58;10.70;1.00
6178;DHT22;3122;48.208;11.174;2023-04-07T14:57:58;10.70;1.00
6178;DHT22;3122;48.208;11.174;2023-04-07T15:02:59;10.70;1.00
6178;DHT22;3122;48.208;11.174;2023-04-07T15:08:00;10.30;1.00
6178;DHT22;3122;48.208;11.174;2023-04-07T15:13:01;10.20;1.00
6178;DHT22;3122;48.208;11.174;2023-04-07T15:18:01;10.10;1.00
6178;DHT22;3122;48.208;11.174;2023-04-07T15:23:02;10.10;1.00
6178;DHT22;3122;48.208;11.174;2023-04-07T15:28:02;10.20;1.00
6178;DHT22;3122;48.208;11.174;2023-04-07T15:33:03;10.00;1.00
6178;DHT22;3122;48.208;11.174;2023-04-07T15:38:04;10.00;1.00
6178;DHT22;3122;48.208;11.174;2023-04-07T15:43:04;9.90;1.00
6178;DHT22;3122;48.208;11.174;2023-04-07T15:48:06;9.90;1.00
6178;DHT22;3122;48.208;11.174;2023-04-07T15:53:09;9.80;1.00
6178;DHT22;3122;48.208;11.174;2023-04-07T15:58:10;9.80;1.00
6178;DHT22;3122;48.208;11.174;2023-04-07T16:03:11;9.70;1.00
6178;DHT22;3122;48.208;11.174;2023-04-07T16:08:11;9.70;1.00
6178;DHT22;3122;48.208;11.174;2023-04-07T16:13:12;9.80;1.00
6178;DHT22;3122;48.208;11.174;2023-04-07T16:18:13;9.80;1.00
6178;DHT22;3122;48.208;11.174;2023-04-07T16:23:13;9.60;1.00
6178;DHT22;3122;48.208;11.174;2023-04-07T16:28:14;9.60;1.00
6178;DHT22;3122;48.208;11.174;2023-04-07T16:33:15;9.50;1.00
6178;DHT22;3122;48.208;11.174;2023-04-07T16:38:15;9.50;1.00
6178;DHT22;3122;48.208;11.174;2023-04-07T16:43:16;9.40;1.00
6178;DHT22;3122;48.208;11.174;2023-04-07T16:48:17;9.40;1.00
6178;DHT22;3122;48.208;11.174;2023-04-07T16:53:18;9.30;1.00
6178;DHT22;3122;48.208;11.174;2023-04-07T16:58:18;9.30;1.00
6178;DHT22;3122;48.208;11.174;2023-04-07T17:03:19;9.20;1.00
6178;DHT22;3122;48.208;11.174;2023-04-07T17:08:20;9.20;1.00
6178;DHT22;3122;48.208;11.174;2023-04-07T17:13:21;9.10;1.00
6178;DHT22;3122;48.208;11.174;2023-04-07T17:18:21;9.10;1.00
6178;DHT22;3122;48.208;11.174;2023-04-07T17:23:22;9.10;1.00
6178;DHT22;3122;48.208;11.174;2023-04-07T17:28:25;9.00;1.00
6178;DHT22;3122;48.208;11.174;2023-04-07T17:33:29;9.00;1.00
6178;DHT22;3122;48.208;11.174;2023-04-07T17:38:30;9.00;1.00
6178;DHT22;3122;48.208;11.174;2023-04-07T17:43:30;8.90;1.00
6178;DHT22;3122;48.208;11.174;2023-04-07T17:48:31;8.80;1.00
6178;DHT22;3122;48.208;11.174;2023-04-07T17:53:32;8.80;1.00
6178;DHT22;3122;48.208;11.174;2023-04-07T17:58:33;8.80;1.00
6178;DHT22;3122;48.208;11.174;2023-04-07T18:03:33;8.70;1.00
6178;DHT22;3122;48.208;11.174;2023-04-07T18:08:34;8.70;1.00
6178;DHT22;3122;48.208;11.174;2023-04-07T18:13:34;8.60;1.00
6178;DHT22;3122;48.208;11.174;2023-04-07T18:18:35;8.50;1.00
6178;DHT22;3122;48.208;11.174;2023-04-07T18:23:37;8.50;1.00
6178;DHT22;3122;48.208;11.174;2023-04-07T18:28:37;8.40;1.00
6178;DHT22;3122;48.208;11.174;2023-04-07T18:33:38;8.50;1.00
6178;DHT22;3122;48.208;11.174;2023-04-07T18:38:39;8.50;1.00
6178;DHT22;3122;48.208;11.174;2023-04-07T18:43:40;8.50;1.00
6178;DHT22;3122;48.208;11.174;2023-04-07T18:48:41;8.40;1.00
6178;DHT22;3122;48.208;11.174;2023-04-07T18:53:43;8.40;1.00
6178;DHT22;3122;48.208;11.174;2023-04-07T18:58:44;8.40;1.00
6178;DHT22;3122;48.208;11.174;2023-04-07T19:03:45;8.40;1.00
6178;DHT22;3122;48.208;11.174;2023-04-07T19:08:45;8.30;1.00
6178;DHT22;3122;48.208;11.174;2023-04-07T19:13:46;8.30;1.00
6178;DHT22;3122;48.208;11.174;2023-04-07T19:18:48;8.20;1.00
6178;DHT22;3122;48.208;11.174;2023-04-07T19:23:49;8.20;1.00
6178;DHT22;3122;48.208;11.174;2023-04-07T19:28:49;8.10;1.00
6178;DHT22;3122;48.208;11.174;2023-04-07T19:33:50;8.20;1.00
6178;DHT22;3122;48.208;11.174;2023-04-07T19:38:50;8.20;1.00
6178;DHT22;3122;48.208;11.174;2023-04-07T19:43:51;8.10;1.00
6178;DHT22;3122;48.208;11.174;2023-04-07T19:48:52;8.10;1.00
6178;DHT22;3122;48.208;11.174;2023-04-07T19:53:53;8.00;1.00
6178;DHT22;3122;48.208;11.174;2023-04-07T19:58:53;7.80;1.00
6178;DHT22;3122;48.208;11.174;2023-04-07T20:03:54;7.80;1.00
6178;DHT22;3122;48.208;11.174;2023-04-07T20:08:54;7.80;1.00
6178;DHT22;3122;48.208;11.174;2023-04-07T20:13:55;7.80;1.00
6178;DHT22;3122;48.208;11.174;2023-04-07T20:18:56;7.80;1.00
6178;DHT22;3122;48.208;11.174;2023-04-07T20:23:56;7.70;1.00
6178;DHT22;3122;48.208;11.174;2023-04-07T20:28:57;7.80;1.00
6178;DHT22;3122;48.208;11.174;2023-04-07T20:33:58;7.70;1.00
6178;DHT22;3122;48.208;11.174;2023-04-07T20:38:58;7.70;1.00
6178;DHT22;3122;48.208;11.174;2023-04-07T20:43:59;7.60;1.00
6178;DHT22;3122;48.208;11.174;2023-04-07T20:49:00;7.60;1.00
6178;DHT22;3122;48.208;11.174;2023-04-07T20:54:00;7.70;1.00
6178;DHT22;3122;48.208;11.174;2023-04-07T20:59:01;7.70;1.00
6178;DHT22;3122;48.208;11.174;2023-04-07T21:04:01;7.70;1.00
6178;DHT22;3122;48.208;11.174;2023-04-07T21:09:02;7.70;1.00
6178;DHT22;3122;48.208;11.174;2023-04-07T21:14:04;7.60;1.00
6178;DHT22;3122;48.208;11.174;2023-04-07T21:19:05;7.50;1.00
6178;DHT22;3122;48.208;11.174;2023-04-07T21:24:06;7.40;1.00
6178;DHT22;3122;48.208;11.174;2023-04-07T21:29:07;7.30;1.00
6178;DHT22;3122;48.208;11.174;2023-04-07T21:34:07;7.20;1.00
6178;DHT22;3122;48.208;11.174;2023-04-07T21:39:08;7.00;1.00
6178;DHT22;3122;48.208;11.174;2023-04-07T21:44:09;7.10;1.00
6178;DHT22;3122;48.208;11.174;2023-04-07T21:49:10;6.90;1.00
6178;DHT22;3122;48.208;11.174;2023-04-07T21:54:11;6.80;1.00
6178;DHT22;3122;48.208;11.174;2023-04-07T21:59:12;6.70;1.00
6178;DHT22;3122;48.208;11.174;2023-04-07T22:04:13;6.50;1.00
6178;DHT22;3122;48.208;11.174;2023-04-07T22:09:14;6.30;1.00
6178;DHT22;3122;48.208;11.174;2023-04-07T22:14:15;6.20;1.00
6178;DHT22;3122;48.208;11.174;2023-04-07T22:19:15;6.20;1.00
6178;DHT22;3122;48.208;11.174;2023-04-07T22:24:16;6.20;1.00
6178;DHT22;3122;48.208;11.174;2023-04-07T22:29:16;6.10;1.00
6178;DHT22;3122;48.208;11.174;2023-04-07T22:34:17;6.10;1.00
6178;DHT22;3122;48.208;11.174;2023-04-07T22:39:18;5.80;1.00
6178;DHT22;3122;48.208;11.174;2023-04-07T22:44:18;5.70;1.00
6178;DHT22;3122;48.208;11.174;2023-04-07T22:49:19;5.60;1.00
6178;DHT22;3122;48.208;11.174;2023-04-07T22:54:19;5.60;1.00
6178;DHT22;3122;48.208;11.174;2023-04-07T22:59:20;5.60;1.00
6178;DHT22;3122;48.208;11.174;2023-04-07T23:04:21;5.50;1.00
6178;DHT22;3122;48.208;11.174;2023-04-07T23:09:21;5.50;1.00
6178;DHT22;3122;48.208;11.174;2023-04-07T23:14:22;5.40;1.00
6178;DHT22;3122;48.208;11.174;2023-04-07T23:19:22;5.40;1.00
6178;DHT22;3122;48.208;11.174;2023-04-07T23:24:23;5.30;1.00
6178;DHT22;3122;48.208;11.174;2023-04-07T23:29:24;5.20;1.00
6178;DHT22;3122;48.208;11.174;2023-04-07T23:34:24;5.10;1.00
6178;DHT22;3122;48.208;11.174;2023-04-07T23:39:25;5.20;1.00
6178;DHT22;3122;48.208;11.174;2023-04-07T23:44:26;5.00;1.00
6178;DHT22;3122;48.208;11.174;2023-04-07T23:49:26;5.00;1.00
6178;DHT22;3122;48.208;11.174;2023-04-07T23:54:28;5.00;1.00
6178;DHT22;3122;48.208;11.174;2023-04-07T23:59:29;4.90;1.00
